sensor_id;sensor_type;location;lat;lon;timestamp;P1;durP1;ratioP1;P2;durP2;ratioP2
6223;SDS011;3145;42.726;23.342;2023-08-17T00:02:24;11.63;;;10.43;;
6223;SDS011;3145;42.726;23.342;2023-08-17T00:04:51;15.07;;;9.67;;
6223;SDS011;3145;42.726;23.342;2023-08-17T00:07:18;11.73;;;10.50;;
6223;SDS011;3145;42.726;23.342;2023-08-17T00:09:44;12.23;;;10.33;;
6223;SDS011;3145;42.726;23.342;2023-08-17T00:12:12;10.03;;;9.03;;
6223;SDS011;3145;42.726;23.342;2023-08-17T00:14:39;9.93;;;9.03;;
6223;SDS011;3145;42.726;23.342;2023-08-17T00:17:07;9.10;;;8.30;;
6223;SDS011;3145;42.726;23.342;2023-08-17T00:19:34;10.47;;;8.37;;
6223;SDS011;3145;42.726;23.342;2023-08-17T00:22:01;10.47;;;8.57;;
6223;SDS011;3145;42.726;23.342;2023-08-17T00:24:27;9.87;;;7.97;;
6223;SDS011;3145;42.726;23.342;2023-08-17T00:26:54;9.33;;;7.73;;
6223;SDS011;3145;42.726;23.342;2023-08-17T00:29:21;10.37;;;7.90;;
6223;SDS011;3145;42.726;23.342;2023-08-17T00:31:47;11.30;;;7.17;;
6223;SDS011;3145;42.726;23.342;2023-08-17T00:34:16;9.20;;;7.40;;
6223;SDS011;3145;42.726;23.342;2023-08-17T00:36:43;7.73;;;7.03;;
6223;SDS011;3145;42.726;23.342;2023-08-17T00:39:09;8.27;;;7.43;;
6223;SDS011;3145;42.726;23.342;2023-08-17T00:41:36;10.93;;;6.57;;
6223;SDS011;3145;42.726;23.342;2023-08-17T00:44:03;12.67;;;7.80;;
6223;SDS011;3145;42.726;23.342;2023-08-17T00:46:30;8.50;;;7.73;;
6223;SDS011;3145;42.726;23.342;2023-08-17T00:48:57;8.40;;;7.70;;
6223;SDS011;3145;42.726;23.342;2023-08-17T00:51:26;8.20;;;7.50;;
6223;SDS011;3145;42.726;23.342;2023-08-17T00:53:54;8.00;;;7.27;;
6223;SDS011;3145;42.726;23.342;2023-08-17T00:56:25;8.67;;;7.87;;
6223;SDS011;3145;42.726;23.342;2023-08-17T00:58:52;8.93;;;7.77;;
6223;SDS011;3145;42.726;23.342;2023-08-17T01:01:19;12.93;;;8.57;;
6223;SDS011;3145;42.726;23.342;2023-08-17T01:03:46;10.63;;;8.03;;
6223;SDS011;3145;42.726;23.342;2023-08-17T01:06:13;9.67;;;8.73;;
6223;SDS011;3145;42.726;23.342;2023-08-17T01:08:41;11.00;;;8.57;;
6223;SDS011;3145;42.726;23.342;2023-08-17T01:11:17;10.83;;;9.27;;
6223;SDS011;3145;42.726;23.342;2023-08-17T01:13:53;14.50;;;8.70;;
6223;SDS011;3145;42.726;23.342;2023-08-17T01:16:26;12.67;;;9.47;;
6223;SDS011;3145;42.726;23.342;2023-08-17T01:18:57;10.10;;;9.03;;
6223;SDS011;3145;42.726;23.342;2023-08-17T01:21:25;8.87;;;8.10;;
6223;SDS011;3145;42.726;23.342;2023-08-17T01:24:04;9.90;;;8.77;;
6223;SDS011;3145;42.726;23.342;2023-08-17T01:26:31;9.63;;;8.80;;
6223;SDS011;3145;42.726;23.342;2023-08-17T01:28:58;9.87;;;8.87;;
6223;SDS011;3145;42.726;23.342;2023-08-17T01:31:27;9.23;;;8.43;;
6223;SDS011;3145;42.726;23.342;2023-08-17T01:33:58;14.37;;;8.83;;
6223;SDS011;3145;42.726;23.342;2023-08-17T01:36:30;9.00;;;8.10;;
6223;SDS011;3145;42.726;23.342;2023-08-17T01:39:00;9.93;;;7.83;;
6223;SDS011;3145;42.726;23.342;2023-08-17T01:41:31;13.37;;;8.30;;
6223;SDS011;3145;42.726;23.342;2023-08-17T01:43:59;7.87;;;7.20;;
6223;SDS011;3145;42.726;23.342;2023-08-17T01:46:29;8.50;;;6.87;;
6223;SDS011;3145;42.726;23.342;2023-08-17T01:48:56;8.20;;;7.40;;
6223;SDS011;3145;42.726;23.342;2023-08-17T01:51:23;13.70;;;7.93;;
6223;SDS011;3145;42.726;23.342;2023-08-17T01:53:50;9.60;;;7.67;;
6223;SDS011;3145;42.726;23.342;2023-08-17T01:56:17;10.73;;;7.67;;
6223;SDS011;3145;42.726;23.342;2023-08-17T01:58:45;7.63;;;6.93;;
6223;SDS011;3145;42.726;23.342;2023-08-17T02:01:12;9.10;;;8.20;;
6223;SDS011;3145;42.726;23.342;2023-08-17T02:03:38;8.90;;;8.00;;
6223;SDS011;3145;42.726;23.342;2023-08-17T02:06:05;10.93;;;7.53;;
6223;SDS011;3145;42.726;23.342;2023-08-17T02:08:33;8.87;;;7.73;;
6223;SDS011;3145;42.726;23.342;2023-08-17T02:10:59;8.50;;;7.60;;
6223;SDS011;3145;42.726;23.342;2023-08-17T02:13:26;16.90;;;7.50;;
6223;SDS011;3145;42.726;23.342;2023-08-17T02:15:54;12.30;;;8.13;;
6223;SDS011;3145;42.726;23.342;2023-08-17T02:18:21;9.00;;;7.47;;
6223;SDS011;3145;42.726;23.342;2023-08-17T02:20:48;8.93;;;8.03;;
6223;SDS011;3145;42.726;23.342;2023-08-17T02:23:14;10.13;;;7.70;;
6223;SDS011;3145;42.726;23.342;2023-08-17T02:25:41;15.43;;;7.40;;
6223;SDS011;3145;42.726;23.342;2023-08-17T02:28:07;8.77;;;7.77;;
6223;SDS011;3145;42.726;23.342;2023-08-17T02:30:34;10.83;;;8.47;;
6223;SDS011;3145;42.726;23.342;2023-08-17T02:33:03;9.93;;;7.77;;
6223;SDS011;3145;42.726;23.342;2023-08-17T02:35:30;9.30;;;7.77;;
6223;SDS011;3145;42.726;23.342;2023-08-17T02:37:56;9.87;;;7.87;;
6223;SDS011;3145;42.726;23.342;2023-08-17T02:40:23;11.53;;;9.93;;
6223;SDS011;3145;42.726;23.342;2023-08-17T02:42:50;10.23;;;9.23;;
6223;SDS011;3145;42.726;23.342;2023-08-17T02:45:17;10.80;;;9.73;;
6223;SDS011;3145;42.726;23.342;2023-08-17T02:47:43;11.57;;;10.43;;
6223;SDS011;3145;42.726;23.342;2023-08-17T02:50:11;10.80;;;9.60;;
6223;SDS011;3145;42.726;23.342;2023-08-17T02:52:38;12.90;;;10.23;;
6223;SDS011;3145;42.726;23.342;2023-08-17T02:55:05;11.70;;;10.17;;
6223;SDS011;3145;42.726;23.342;2023-08-17T02:57:32;9.73;;;8.67;;
6223;SDS011;3145;42.726;23.342;2023-08-17T02:59:59;9.67;;;8.53;;
6223;SDS011;3145;42.726;23.342;2023-08-17T03:02:26;14.23;;;9.47;;
6223;SDS011;3145;42.726;23.342;2023-08-17T03:04:52;18.00;;;9.37;;
6223;SDS011;3145;42.726;23.342;2023-08-17T03:07:20;11.50;;;8.90;;
6223;SDS011;3145;42.726;23.342;2023-08-17T03:09:47;11.47;;;9.13;;
6223;SDS011;3145;42.726;23.342;2023-08-17T03:12:14;9.47;;;8.40;;
6223;SDS011;3145;42.726;23.342;2023-08-17T03:14:40;10.77;;;8.97;;
6223;SDS011;3145;42.726;23.342;2023-08-17T03:17:07;11.50;;;9.30;;
6223;SDS011;3145;42.726;23.342;2023-08-17T03:19:34;12.50;;;9.53;;
6223;SDS011;3145;42.726;23.342;2023-08-17T03:22:00;14.23;;;10.60;;
6223;SDS011;3145;42.726;23.342;2023-08-17T03:24:29;20.53;;;12.07;;
6223;SDS011;3145;42.726;23.342;2023-08-17T03:26:55;19.27;;;14.47;;
6223;SDS011;3145;42.726;23.342;2023-08-17T03:29:22;21.67;;;15.93;;
6223;SDS011;3145;42.726;23.342;2023-08-17T03:31:49;20.53;;;15.00;;
6223;SDS011;3145;42.726;23.342;2023-08-17T03:34:15;25.40;;;14.47;;
6223;SDS011;3145;42.726;23.342;2023-08-17T03:36:42;13.73;;;11.80;;
6223;SDS011;3145;42.726;23.342;2023-08-17T03:39:09;17.37;;;10.67;;
6223;SDS011;3145;42.726;23.342;2023-08-17T03:41:37;13.53;;;9.53;;
6223;SDS011;3145;42.726;23.342;2023-08-17T03:44:04;10.67;;;9.77;;
6223;SDS011;3145;42.726;23.342;2023-08-17T03:46:32;14.73;;;10.67;;
6223;SDS011;3145;42.726;23.342;2023-08-17T03:48:59;11.70;;;9.83;;
6223;SDS011;3145;42.726;23.342;2023-08-17T03:51:25;14.20;;;9.07;;
6223;SDS011;3145;42.726;23.342;2023-08-17T03:53:52;9.50;;;8.67;;
6223;SDS011;3145;42.726;23.342;2023-08-17T03:56:19;10.37;;;8.27;;
6223;SDS011;3145;42.726;23.342;2023-08-17T03:58:47;13.80;;;8.80;;
6223;SDS011;3145;42.726;23.342;2023-08-17T04:01:13;12.53;;;8.57;;
6223;SDS011;3145;42.726;23.342;2023-08-17T04:03:40;9.53;;;7.80;;
6223;SDS011;3145;42.726;23.342;2023-08-17T04:06:07;8.17;;;7.37;;
6223;SDS011;3145;42.726;23.342;2023-08-17T04:08:35;10.27;;;9.17;;
6223;SDS011;3145;42.726;23.342;2023-08-17T04:11:02;41.83;;;33.10;;
6223;SDS011;3145;42.726;23.342;2023-08-17T04:13:29;15.47;;;11.17;;
6223;SDS011;3145;42.726;23.342;2023-08-17T04:15:57;10.93;;;9.93;;
6223;SDS011;3145;42.726;23.342;2023-08-17T04:18:24;17.93;;;10.23;;
6223;SDS011;3145;42.726;23.342;2023-08-17T04:20:50;25.53;;;12.73;;
6223;SDS011;3145;42.726;23.342;2023-08-17T04:23:17;20.03;;;11.70;;
6223;SDS011;3145;42.726;23.342;2023-08-17T04:25:44;19.77;;;12.00;;
6223;SDS011;3145;42.726;23.342;2023-08-17T04:28:10;16.37;;;14.60;;
6223;SDS011;3145;42.726;23.342;2023-08-17T04:30:37;15.50;;;13.43;;
6223;SDS011;3145;42.726;23.342;2023-08-17T04:33:05;15.70;;;11.17;;
6223;SDS011;3145;42.726;23.342;2023-08-17T04:35:32;15.00;;;9.27;;
6223;SDS011;3145;42.726;23.342;2023-08-17T04:37:59;14.73;;;9.07;;
6223;SDS011;3145;42.726;23.342;2023-08-17T04:40:26;9.63;;;8.43;;
6223;SDS011;3145;42.726;23.342;2023-08-17T04:42:53;12.07;;;7.60;;
6223;SDS011;3145;42.726;23.342;2023-08-17T04:45:20;17.23;;;7.17;;
6223;SDS011;3145;42.726;23.342;2023-08-17T04:47:47;10.47;;;8.27;;
6223;SDS011;3145;42.726;23.342;2023-08-17T04:50:15;10.33;;;7.60;;
6223;SDS011;3145;42.726;23.342;2023-08-17T04:52:42;9.83;;;6.37;;
6223;SDS011;3145;42.726;23.342;2023-08-17T04:55:09;8.80;;;6.47;;
6223;SDS011;3145;42.726;23.342;2023-08-17T04:57:36;12.10;;;6.63;;
6223;SDS011;3145;42.726;23.342;2023-08-17T05:00:03;8.00;;;6.63;;
6223;SDS011;3145;42.726;23.342;2023-08-17T05:02:34;6.30;;;5.70;;
6223;SDS011;3145;42.726;23.342;2023-08-17T05:05:02;9.25;;;5.70;;
6223;SDS011;3145;42.726;23.342;2023-08-17T05:07:30;8.93;;;6.23;;
6223;SDS011;3145;42.726;23.342;2023-08-17T05:09:57;8.30;;;5.78;;
6223;SDS011;3145;42.726;23.342;2023-08-17T05:12:24;10.95;;;6.18;;
6223;SDS011;3145;42.726;23.342;2023-08-17T05:14:50;7.93;;;5.97;;
6223;SDS011;3145;42.726;23.342;2023-08-17T05:17:17;9.53;;;6.27;;
6223;SDS011;3145;42.726;23.342;2023-08-17T05:19:44;8.33;;;5.20;;
6223;SDS011;3145;42.726;23.342;2023-08-17T05:22:11;8.27;;;5.57;;
6223;SDS011;3145;42.726;23.342;2023-08-17T05:24:40;9.48;;;5.90;;
6223;SDS011;3145;42.726;23.342;2023-08-17T05:27:06;6.10;;;5.68;;
6223;SDS011;3145;42.726;23.342;2023-08-17T05:29:33;7.15;;;5.63;;
6223;SDS011;3145;42.726;23.342;2023-08-17T05:32:00;5.38;;;4.88;;
6223;SDS011;3145;42.726;23.342;2023-08-17T05:34:26;8.73;;;5.55;;
6223;SDS011;3145;42.726;23.342;2023-08-17T05:36:53;6.60;;;4.93;;
6223;SDS011;3145;42.726;23.342;2023-08-17T05:39:20;12.10;;;5.45;;
6223;SDS011;3145;42.726;23.342;2023-08-17T05:41:48;8.23;;;5.07;;
6223;SDS011;3145;42.726;23.342;2023-08-17T05:44:15;6.95;;;5.00;;
6223;SDS011;3145;42.726;23.342;2023-08-17T05:46:42;7.20;;;5.50;;
6223;SDS011;3145;42.726;23.342;2023-08-17T05:49:09;8.38;;;5.68;;
6223;SDS011;3145;42.726;23.342;2023-08-17T05:51:36;5.45;;;4.95;;
6223;SDS011;3145;42.726;23.342;2023-08-17T05:54:03;6.43;;;5.07;;
6223;SDS011;3145;42.726;23.342;2023-08-17T05:56:31;12.68;;;4.93;;
6223;SDS011;3145;42.726;23.342;2023-08-17T05:58:59;6.25;;;5.45;;
6223;SDS011;3145;42.726;23.342;2023-08-17T06:01:26;5.85;;;5.05;;
6223;SDS011;3145;42.726;23.342;2023-08-17T06:03:52;6.20;;;5.18;;
6223;SDS011;3145;42.726;23.342;2023-08-17T06:06:19;6.45;;;5.80;;
6223;SDS011;3145;42.726;23.342;2023-08-17T06:08:46;11.95;;;5.00;;
6223;SDS011;3145;42.726;23.342;2023-08-17T06:11:13;9.63;;;5.97;;
6223;SDS011;3145;42.726;23.342;2023-08-17T06:13:39;7.70;;;5.45;;
6223;SDS011;3145;42.726;23.342;2023-08-17T06:16:07;10.15;;;5.57;;
6223;SDS011;3145;42.726;23.342;2023-08-17T06:18:35;8.15;;;5.38;;
6223;SDS011;3145;42.726;23.342;2023-08-17T06:21:02;12.55;;;5.63;;
6223;SDS011;3145;42.726;23.342;2023-08-17T06:23:29;9.02;;;5.57;;
6223;SDS011;3145;42.726;23.342;2023-08-17T06:25:56;7.47;;;5.35;;
6223;SDS011;3145;42.726;23.342;2023-08-17T06:28:23;7.45;;;6.28;;
6223;SDS011;3145;42.726;23.342;2023-08-17T06:30:51;6.90;;;6.05;;
6223;SDS011;3145;42.726;23.342;2023-08-17T06:33:20;8.77;;;6.20;;
6223;SDS011;3145;42.726;23.342;2023-08-17T06:35:47;10.13;;;6.40;;
6223;SDS011;3145;42.726;23.342;2023-08-17T06:38:14;7.25;;;6.57;;
6223;SDS011;3145;42.726;23.342;2023-08-17T06:40:42;6.55;;;5.95;;
6223;SDS011;3145;42.726;23.342;2023-08-17T06:43:09;7.85;;;6.60;;
6223;SDS011;3145;42.726;23.342;2023-08-17T06:45:36;11.85;;;6.90;;
6223;SDS011;3145;42.726;23.342;2023-08-17T06:48:03;9.98;;;6.40;;
6223;SDS011;3145;42.726;23.342;2023-08-17T06:50:31;13.93;;;6.28;;
6223;SDS011;3145;42.726;23.342;2023-08-17T06:52:58;7.07;;;6.38;;
6223;SDS011;3145;42.726;23.342;2023-08-17T06:55:25;8.32;;;6.10;;
6223;SDS011;3145;42.726;23.342;2023-08-17T06:57:51;7.55;;;6.65;;
6223;SDS011;3145;42.726;23.342;2023-08-17T07:00:20;9.05;;;6.05;;
6223;SDS011;3145;42.726;23.342;2023-08-17T07:02:47;9.77;;;6.40;;
6223;SDS011;3145;42.726;23.342;2023-08-17T07:05:14;7.68;;;7.00;;
6223;SDS011;3145;42.726;23.342;2023-08-17T07:07:42;6.60;;;5.90;;
6223;SDS011;3145;42.726;23.342;2023-08-17T07:10:09;11.00;;;6.22;;
6223;SDS011;3145;42.726;23.342;2023-08-17T07:12:36;7.55;;;5.97;;
6223;SDS011;3145;42.726;23.342;2023-08-17T07:15:03;7.28;;;6.03;;
6223;SDS011;3145;42.726;23.342;2023-08-17T07:17:31;7.85;;;7.05;;
6223;SDS011;3145;42.726;23.342;2023-08-17T07:19:59;8.93;;;5.93;;
6223;SDS011;3145;42.726;23.342;2023-08-17T07:22:25;6.30;;;4.55;;
6223;SDS011;3145;42.726;23.342;2023-08-17T07:24:53;5.05;;;4.60;;
6223;SDS011;3145;42.726;23.342;2023-08-17T07:27:20;8.20;;;4.60;;
6223;SDS011;3145;42.726;23.342;2023-08-17T07:29:47;5.47;;;4.63;;
6223;SDS011;3145;42.726;23.342;2023-08-17T07:32:14;4.78;;;4.18;;
6223;SDS011;3145;42.726;23.342;2023-08-17T07:34:41;6.30;;;5.32;;
6223;SDS011;3145;42.726;23.342;2023-08-17T07:37:07;5.38;;;4.90;;
6223;SDS011;3145;42.726;23.342;2023-08-17T07:39:34;7.32;;;5.22;;
6223;SDS011;3145;42.726;23.342;2023-08-17T07:42:03;7.22;;;5.85;;
6223;SDS011;3145;42.726;23.342;2023-08-17T07:44:30;7.15;;;5.18;;
6223;SDS011;3145;42.726;23.342;2023-08-17T07:46:58;6.38;;;5.78;;
6223;SDS011;3145;42.726;23.342;2023-08-17T07:49:25;8.18;;;5.32;;
6223;SDS011;3145;42.726;23.342;2023-08-17T07:51:52;9.50;;;6.50;;
6223;SDS011;3145;42.726;23.342;2023-08-17T07:54:18;8.63;;;6.10;;
6223;SDS011;3145;42.726;23.342;2023-08-17T07:56:45;7.68;;;5.78;;
6223;SDS011;3145;42.726;23.342;2023-08-17T07:59:13;7.05;;;5.30;;
6223;SDS011;3145;42.726;23.342;2023-08-17T08:01:40;9.40;;;5.22;;
6223;SDS011;3145;42.726;23.342;2023-08-17T08:04:07;6.05;;;5.40;;
6223;SDS011;3145;42.726;23.342;2023-08-17T08:06:34;7.90;;;5.45;;
6223;SDS011;3145;42.726;23.342;2023-08-17T08:09:00;7.30;;;4.43;;
6223;SDS011;3145;42.726;23.342;2023-08-17T08:11:27;7.90;;;4.53;;
6223;SDS011;3145;42.726;23.342;2023-08-17T08:13:55;4.65;;;4.35;;
6223;SDS011;3145;42.726;23.342;2023-08-17T08:16:24;7.43;;;4.72;;
6223;SDS011;3145;42.726;23.342;2023-08-17T08:18:50;5.80;;;5.28;;
6223;SDS011;3145;42.726;23.342;2023-08-17T08:21:17;4.22;;;3.83;;
6223;SDS011;3145;42.726;23.342;2023-08-17T08:23:44;6.15;;;4.28;;
6223;SDS011;3145;42.726;23.342;2023-08-17T08:26:10;8.52;;;4.72;;
6223;SDS011;3145;42.726;23.342;2023-08-17T08:28:37;7.05;;;6.00;;
6223;SDS011;3145;42.726;23.342;2023-08-17T08:31:04;5.50;;;5.10;;
6223;SDS011;3145;42.726;23.342;2023-08-17T08:33:32;5.55;;;4.55;;
6223;SDS011;3145;42.726;23.342;2023-08-17T08:35:58;7.00;;;4.38;;
6223;SDS011;3145;42.726;23.342;2023-08-17T08:38:25;6.90;;;4.45;;
6223;SDS011;3145;42.726;23.342;2023-08-17T08:40:52;5.45;;;4.78;;
6223;SDS011;3145;42.726;23.342;2023-08-17T08:43:19;4.25;;;3.67;;
6223;SDS011;3145;42.726;23.342;2023-08-17T08:45:46;5.78;;;5.25;;
6223;SDS011;3145;42.726;23.342;2023-08-17T08:48:14;6.60;;;4.95;;
6223;SDS011;3145;42.726;23.342;2023-08-17T08:50:45;4.63;;;3.85;;
6223;SDS011;3145;42.726;23.342;2023-08-17T08:53:13;4.88;;;4.18;;
6223;SDS011;3145;42.726;23.342;2023-08-17T08:55:41;4.57;;;3.72;;
6223;SDS011;3145;42.726;23.342;2023-08-17T08:58:13;7.22;;;4.88;;
6223;SDS011;3145;42.726;23.342;2023-08-17T09:00:41;8.50;;;4.15;;
6223;SDS011;3145;42.726;23.342;2023-08-17T09:03:13;3.55;;;3.35;;
6223;SDS011;3145;42.726;23.342;2023-08-17T09:05:42;4.28;;;3.92;;
6223;SDS011;3145;42.726;23.342;2023-08-17T09:08:13;4.10;;;3.78;;
6223;SDS011;3145;42.726;23.342;2023-08-17T09:10:41;10.65;;;4.72;;
6223;SDS011;3145;42.726;23.342;2023-08-17T09:13:09;4.32;;;3.20;;
6223;SDS011;3145;42.726;23.342;2023-08-17T09:15:36;3.08;;;2.85;;
6223;SDS011;3145;42.726;23.342;2023-08-17T09:18:04;6.35;;;3.10;;
6223;SDS011;3145;42.726;23.342;2023-08-17T09:20:35;3.67;;;3.17;;
6223;SDS011;3145;42.726;23.342;2023-08-17T09:23:06;11.25;;;3.92;;
6223;SDS011;3145;42.726;23.342;2023-08-17T09:25:37;7.10;;;3.00;;
6223;SDS011;3145;42.726;23.342;2023-08-17T09:28:06;4.07;;;2.70;;
6223;SDS011;3145;42.726;23.342;2023-08-17T09:30:34;6.32;;;3.10;;
6223;SDS011;3145;42.726;23.342;2023-08-17T09:33:16;3.35;;;3.05;;
6223;SDS011;3145;42.726;23.342;2023-08-17T09:35:43;4.35;;;2.85;;
6223;SDS011;3145;42.726;23.342;2023-08-17T09:38:11;7.55;;;3.13;;
6223;SDS011;3145;42.726;23.342;2023-08-17T09:40:38;4.72;;;3.50;;
6223;SDS011;3145;42.726;23.342;2023-08-17T09:43:05;4.72;;;2.60;;
6223;SDS011;3145;42.726;23.342;2023-08-17T09:45:32;4.07;;;3.53;;
6223;SDS011;3145;42.726;23.342;2023-08-17T09:47:59;6.97;;;3.55;;
6223;SDS011;3145;42.726;23.342;2023-08-17T09:50:26;4.90;;;4.57;;
6223;SDS011;3145;42.726;23.342;2023-08-17T09:52:52;4.18;;;3.75;;
6223;SDS011;3145;42.726;23.342;2023-08-17T09:55:21;6.13;;;3.15;;
6223;SDS011;3145;42.726;23.342;2023-08-17T09:57:48;3.40;;;2.53;;
6223;SDS011;3145;42.726;23.342;2023-08-17T10:00:16;6.30;;;2.38;;
6223;SDS011;3145;42.726;23.342;2023-08-17T10:02:44;2.45;;;2.25;;
6223;SDS011;3145;42.726;23.342;2023-08-17T10:05:11;3.22;;;2.65;;
6223;SDS011;3145;42.726;23.342;2023-08-17T10:07:40;3.00;;;2.78;;
6223;SDS011;3145;42.726;23.342;2023-08-17T10:10:12;4.32;;;2.42;;
6223;SDS011;3145;42.726;23.342;2023-08-17T10:12:44;3.53;;;2.97;;
6223;SDS011;3145;42.726;23.342;2023-08-17T10:15:15;5.13;;;3.75;;
6223;SDS011;3145;42.726;23.342;2023-08-17T10:17:46;3.35;;;2.97;;
6223;SDS011;3145;42.726;23.342;2023-08-17T10:20:19;5.47;;;2.90;;
6223;SDS011;3145;42.726;23.342;2023-08-17T10:22:48;8.20;;;7.53;;
6223;SDS011;3145;42.726;23.342;2023-08-17T10:25:24;4.30;;;2.90;;
6223;SDS011;3145;42.726;23.342;2023-08-17T10:27:55;3.88;;;2.88;;
6223;SDS011;3145;42.726;23.342;2023-08-17T10:30:24;4.85;;;3.95;;
6223;SDS011;3145;42.726;23.342;2023-08-17T10:32:50;9.00;;;4.55;;
6223;SDS011;3145;42.726;23.342;2023-08-17T10:35:17;7.00;;;6.20;;
6223;SDS011;3145;42.726;23.342;2023-08-17T10:37:45;3.97;;;3.35;;
6223;SDS011;3145;42.726;23.342;2023-08-17T10:40:11;24.73;;;17.15;;
6223;SDS011;3145;42.726;23.342;2023-08-17T10:42:38;5.10;;;4.18;;
6223;SDS011;3145;42.726;23.342;2023-08-17T10:50:59;3.60;;;2.88;;
6223;SDS011;3145;42.726;23.342;2023-08-17T10:53:32;4.43;;;3.45;;
6223;SDS011;3145;42.726;23.342;2023-08-17T10:56:07;5.93;;;2.97;;
6223;SDS011;3145;42.726;23.342;2023-08-17T10:58:36;3.40;;;3.05;;
6223;SDS011;3145;42.726;23.342;2023-08-17T11:01:04;5.15;;;2.70;;
6223;SDS011;3145;42.726;23.342;2023-08-17T11:03:32;6.68;;;3.83;;
6223;SDS011;3145;42.726;23.342;2023-08-17T11:06:13;4.75;;;3.90;;
6223;SDS011;3145;42.726;23.342;2023-08-17T11:08:50;6.55;;;4.00;;
6223;SDS011;3145;42.726;23.342;2023-08-17T11:11:19;4.68;;;3.05;;
6223;SDS011;3145;42.726;23.342;2023-08-17T11:13:46;5.65;;;3.75;;
6223;SDS011;3145;42.726;23.342;2023-08-17T11:16:16;4.57;;;2.92;;
6223;SDS011;3145;42.726;23.342;2023-08-17T11:18:44;5.80;;;4.20;;
6223;SDS011;3145;42.726;23.342;2023-08-17T11:21:11;4.95;;;4.00;;
6223;SDS011;3145;42.726;23.342;2023-08-17T11:23:39;5.13;;;4.10;;
6223;SDS011;3145;42.726;23.342;2023-08-17T11:26:07;9.15;;;4.05;;
6223;SDS011;3145;42.726;23.342;2023-08-17T11:28:34;3.85;;;3.42;;
6223;SDS011;3145;42.726;23.342;2023-08-17T11:31:04;3.40;;;2.80;;
6223;SDS011;3145;42.726;23.342;2023-08-17T11:33:34;5.38;;;2.70;;
6223;SDS011;3145;42.726;23.342;2023-08-17T11:36:03;5.30;;;3.00;;
6223;SDS011;3145;42.726;23.342;2023-08-17T11:38:31;5.35;;;2.92;;
6223;SDS011;3145;42.726;23.342;2023-08-17T11:40:59;5.00;;;4.50;;
6223;SDS011;3145;42.726;23.342;2023-08-17T11:43:27;4.88;;;4.45;;
6223;SDS011;3145;42.726;23.342;2023-08-17T11:45:54;6.13;;;4.28;;
6223;SDS011;3145;42.726;23.342;2023-08-17T11:48:21;8.65;;;4.30;;
6223;SDS011;3145;42.726;23.342;2023-08-17T11:50:51;4.90;;;4.53;;
6223;SDS011;3145;42.726;23.342;2023-08-17T11:53:18;7.60;;;5.28;;
6223;SDS011;3145;42.726;23.342;2023-08-17T11:55:45;8.18;;;5.65;;
6223;SDS011;3145;42.726;23.342;2023-08-17T11:58:12;5.18;;;4.75;;
6223;SDS011;3145;42.726;23.342;2023-08-17T12:00:39;4.82;;;4.53;;
6223;SDS011;3145;42.726;23.342;2023-08-17T12:03:12;7.30;;;4.38;;
6223;SDS011;3145;42.726;23.342;2023-08-17T12:05:40;4.95;;;4.13;;
6223;SDS011;3145;42.726;23.342;2023-08-17T12:08:09;5.70;;;4.30;;
6223;SDS011;3145;42.726;23.342;2023-08-17T12:10:36;4.55;;;4.10;;
6223;SDS011;3145;42.726;23.342;2023-08-17T12:13:03;4.82;;;4.40;;
6223;SDS011;3145;42.726;23.342;2023-08-17T12:15:31;4.93;;;4.57;;
6223;SDS011;3145;42.726;23.342;2023-08-17T12:17:58;5.68;;;4.28;;
6223;SDS011;3145;42.726;23.342;2023-08-17T12:20:26;7.65;;;5.35;;
6223;SDS011;3145;42.726;23.342;2023-08-17T12:22:53;6.20;;;4.72;;
6223;SDS011;3145;42.726;23.342;2023-08-17T12:25:21;5.38;;;4.97;;
6223;SDS011;3145;42.726;23.342;2023-08-17T12:27:49;5.57;;;5.07;;
6223;SDS011;3145;42.726;23.342;2023-08-17T12:30:23;5.00;;;4.53;;
6223;SDS011;3145;42.726;23.342;2023-08-17T12:32:51;6.25;;;4.18;;
6223;SDS011;3145;42.726;23.342;2023-08-17T12:35:18;8.05;;;4.60;;
6223;SDS011;3145;42.726;23.342;2023-08-17T12:37:46;5.43;;;4.93;;
6223;SDS011;3145;42.726;23.342;2023-08-17T12:40:13;6.85;;;4.25;;
6223;SDS011;3145;42.726;23.342;2023-08-17T12:42:41;4.90;;;4.50;;
6223;SDS011;3145;42.726;23.342;2023-08-17T12:45:08;11.70;;;4.43;;
6223;SDS011;3145;42.726;23.342;2023-08-17T12:47:36;4.68;;;4.35;;
6223;SDS011;3145;42.726;23.342;2023-08-17T12:50:03;4.20;;;3.90;;
6223;SDS011;3145;42.726;23.342;2023-08-17T12:52:30;4.82;;;4.50;;
6223;SDS011;3145;42.726;23.342;2023-08-17T12:54:57;5.13;;;4.43;;
6223;SDS011;3145;42.726;23.342;2023-08-17T12:57:24;5.18;;;4.68;;
6223;SDS011;3145;42.726;23.342;2023-08-17T12:59:53;6.38;;;5.03;;
6223;SDS011;3145;42.726;23.342;2023-08-17T13:02:20;6.38;;;3.97;;
6223;SDS011;3145;42.726;23.342;2023-08-17T13:04:46;7.05;;;5.03;;
6223;SDS011;3145;42.726;23.342;2023-08-17T13:07:13;7.88;;;4.45;;
6223;SDS011;3145;42.726;23.342;2023-08-17T13:09:40;5.13;;;4.68;;
6223;SDS011;3145;42.726;23.342;2023-08-17T13:12:07;7.50;;;4.22;;
6223;SDS011;3145;42.726;23.342;2023-08-17T13:14:34;5.82;;;4.43;;
6223;SDS011;3145;42.726;23.342;2023-08-17T13:17:03;5.15;;;4.75;;
6223;SDS011;3145;42.726;23.342;2023-08-17T13:19:30;5.32;;;4.50;;
6223;SDS011;3145;42.726;23.342;2023-08-17T13:21:57;7.22;;;4.82;;
6223;SDS011;3145;42.726;23.342;2023-08-17T13:24:23;10.45;;;4.50;;
6223;SDS011;3145;42.726;23.342;2023-08-17T13:26:50;7.20;;;4.32;;
6223;SDS011;3145;42.726;23.342;2023-08-17T13:29:19;4.50;;;4.10;;
6223;SDS011;3145;42.726;23.342;2023-08-17T13:31:46;6.30;;;3.95;;
6223;SDS011;3145;42.726;23.342;2023-08-17T13:34:15;4.53;;;4.10;;
6223;SDS011;3145;42.726;23.342;2023-08-17T13:36:42;4.53;;;3.85;;
6223;SDS011;3145;42.726;23.342;2023-08-17T13:39:08;4.70;;;4.30;;
6223;SDS011;3145;42.726;23.342;2023-08-17T13:41:35;5.32;;;4.28;;
6223;SDS011;3145;42.726;23.342;2023-08-17T13:44:02;5.40;;;4.03;;
6223;SDS011;3145;42.726;23.342;2023-08-17T13:46:29;6.80;;;3.92;;
6223;SDS011;3145;42.726;23.342;2023-08-17T13:48:56;4.60;;;4.20;;
6223;SDS011;3145;42.726;23.342;2023-08-17T13:51:24;4.53;;;3.33;;
6223;SDS011;3145;42.726;23.342;2023-08-17T13:53:51;4.03;;;3.72;;
6223;SDS011;3145;42.726;23.342;2023-08-17T13:56:17;4.47;;;3.63;;
6223;SDS011;3145;42.726;23.342;2023-08-17T13:58:44;4.15;;;3.83;;
6223;SDS011;3145;42.726;23.342;2023-08-17T14:01:11;4.80;;;4.50;;
6223;SDS011;3145;42.726;23.342;2023-08-17T14:03:37;6.53;;;3.38;;
6223;SDS011;3145;42.726;23.342;2023-08-17T14:06:04;5.63;;;4.35;;
6223;SDS011;3145;42.726;23.342;2023-08-17T14:08:32;5.75;;;4.80;;
6223;SDS011;3145;42.726;23.342;2023-08-17T14:10:59;6.70;;;3.67;;
6223;SDS011;3145;42.726;23.342;2023-08-17T14:13:26;4.18;;;3.78;;
6223;SDS011;3145;42.726;23.342;2023-08-17T14:15:53;6.82;;;3.80;;
6223;SDS011;3145;42.726;23.342;2023-08-17T14:18:21;4.72;;;3.88;;
6223;SDS011;3145;42.726;23.342;2023-08-17T14:20:48;27.20;;;14.13;;
6223;SDS011;3145;42.726;23.342;2023-08-17T14:23:15;4.85;;;3.92;;
6223;SDS011;3145;42.726;23.342;2023-08-17T14:25:43;7.30;;;4.75;;
6223;SDS011;3145;42.726;23.342;2023-08-17T14:28:10;3.90;;;3.60;;
6223;SDS011;3145;42.726;23.342;2023-08-17T14:30:36;6.07;;;3.63;;
6223;SDS011;3145;42.726;23.342;2023-08-17T14:33:03;4.22;;;3.83;;
6223;SDS011;3145;42.726;23.342;2023-08-17T14:35:30;4.72;;;4.32;;
6223;SDS011;3145;42.726;23.342;2023-08-17T14:37:59;3.97;;;3.40;;
6223;SDS011;3145;42.726;23.342;2023-08-17T14:40:27;6.30;;;4.32;;
6223;SDS011;3145;42.726;23.342;2023-08-17T14:42:55;11.98;;;6.18;;
6223;SDS011;3145;42.726;23.342;2023-08-17T14:45:21;3.75;;;3.38;;
6223;SDS011;3145;42.726;23.342;2023-08-17T14:47:48;5.07;;;3.88;;
6223;SDS011;3145;42.726;23.342;2023-08-17T14:50:15;4.03;;;3.65;;
6223;SDS011;3145;42.726;23.342;2023-08-17T14:52:42;4.20;;;3.90;;
6223;SDS011;3145;42.726;23.342;2023-08-17T14:55:08;4.22;;;3.22;;
6223;SDS011;3145;42.726;23.342;2023-08-17T14:57:35;4.88;;;3.65;;
6223;SDS011;3145;42.726;23.342;2023-08-17T15:00:04;3.70;;;3.42;;
6223;SDS011;3145;42.726;23.342;2023-08-17T15:02:32;7.15;;;3.40;;
6223;SDS011;3145;42.726;23.342;2023-08-17T15:04:58;5.70;;;3.30;;
6223;SDS011;3145;42.726;23.342;2023-08-17T15:07:25;4.45;;;3.22;;